This is the latest recevied weather packets stored in our database for station/object KC7KGF. If no packets are shown the sender has not sent any weather packets the latest 10 day(s).
| Time | Temp. | Humidity | Pressure | Rain* | Wind** | Luminosity | Snow |
|---|---|---|---|---|---|---|---|
| 1777545345 | 3.33° C | 49% | 1017.7 hPa | 0 mm | - | - | - |
| 1777543550 | 5° C | 46% | 1017.6 hPa | 0 mm | - | - | - |
| 1777541727 | 6.11° C | 43% | 1018 hPa | 0 mm | - | - | - |
| 1777539944 | 6.67° C | 45% | 1018.1 hPa | 0 mm | - | - | - |
| 1777538148 | 6.67° C | 44% | 1018.4 hPa | 0 mm | - | - | - |
| 1777536338 | 7.78° C | 42% | 1018.6 hPa | 0 mm | - | - | - |
| 1777534541 | 7.78° C | 40% | 1019.1 hPa | 0 mm | - | - | - |
| 1777532727 | 8.33° C | 38% | 1019.3 hPa | 0 mm | - | - | - |
| 1777530940 | 8.89° C | 36% | 1019.4 hPa | 0 mm | - | - | - |
| 1777529126 | 10° C | 33% | 1019.4 hPa | 0 mm | - | - | - |
| 1777527342 | 10.56° C | 30% | 1019.7 hPa | 0 mm | - | - | - |
| 1777525531 | 12.22° C | 28% | 1019.5 hPa | 0 mm | - | - | - |
| 1777523730 | 14.44° C | 24% | 1019.6 hPa | 0 mm | - | - | - |
| 1777521939 | 15° C | 22% | 1019.4 hPa | 0 mm | - | - | - |
| 1777520142 | 15.56° C | 21% | 1019 hPa | 0 mm | - | - | - |
| 1777518331 | 16.11° C | 20% | 1018.6 hPa | 0 mm | - | - | - |
| 1777516528 | 16.67° C | 20% | 1018.3 hPa | 0 mm | - | - | - |
| 1777514737 | 17.22° C | 19% | 1017.9 hPa | 0 mm | - | - | - |
| 1777512936 | 17.78° C | 18% | 1018 hPa | 0 mm | - | - | - |
| 1777511145 | 18.89° C | 17% | 1017.9 hPa | 0 mm | - | - | - |
| 1777509343 | 19.44° C | 17% | 1017.7 hPa | 0 mm | - | - | - |
| 1777507533 | 20.56° C | 16% | 1017.7 hPa | 0 mm | - | - | - |
| 1777505747 | 21.67° C | 15% | 1017.7 hPa | 0 mm | - | - | - |
| 1777503952 | 22.78° C | 13% | 1017.8 hPa | 0 mm | - | - | - |
| 1777502128 | 23.33° C | 13% | 1018.2 hPa | 0 mm | - | - | - |
* Rain latest hour (hover to see other rain measurements)
** Current wind speed in m/s (hover to see current wind gust speed)